createdAt,value
2019-05-22T00:00:31.415Z,96471.00
2019-05-22T00:03:03.773Z,96479.00
2019-05-22T00:05:34.669Z,96480.00
2019-05-22T00:08:09.822Z,96480.00
2019-05-22T00:10:42.467Z,96492.00
2019-05-22T00:13:15.217Z,96488.00
2019-05-22T00:15:46.549Z,96485.00
2019-05-22T00:18:18.463Z,96491.00
2019-05-22T00:20:49.779Z,96493.00
2019-05-22T00:23:22.424Z,96495.00
2019-05-22T00:25:53.986Z,96496.00
2019-05-22T00:28:26.150Z,96489.00
2019-05-22T00:30:57.822Z,96493.00
2019-05-22T00:33:27.583Z,96486.00
2019-05-22T00:35:59.505Z,96495.00
2019-05-22T00:38:32.271Z,96496.00
2019-05-22T00:41:05.028Z,96497.00
2019-05-22T00:43:39.951Z,96494.00
2019-05-22T00:46:20.564Z,96491.00
2019-05-22T00:48:52.309Z,96496.00
2019-05-22T00:51:27.236Z,96506.00
2019-05-22T00:54:17.271Z,96503.00
2019-05-22T00:56:51.966Z,96489.00
2019-05-22T00:59:29.757Z,96494.00
2019-05-22T01:02:04.314Z,96496.00
2019-05-22T01:04:38.877Z,96498.00
2019-05-22T01:07:19.090Z,96504.00
2019-05-22T01:09:52.088Z,96495.00
2019-05-22T01:12:29.880Z,96502.00
2019-05-22T01:15:11.995Z,96509.00
2019-05-22T01:17:42.241Z,96502.00
2019-05-22T01:20:16.449Z,96504.00
2019-05-22T01:22:47.759Z,96516.00
2019-05-22T01:25:24.371Z,96518.00
2019-05-22T01:27:56.527Z,96509.00
2019-05-22T01:30:31.566Z,96514.00
2019-05-22T01:33:04.801Z,96524.00
2019-05-22T01:35:50.405Z,96514.00
2019-05-22T01:38:21.244Z,96519.00
2019-05-22T01:41:06.014Z,96513.00
2019-05-22T01:43:37.807Z,96522.00
2019-05-22T01:46:09.968Z,96529.00
2019-05-22T01:48:42.726Z,96523.00
2019-05-22T01:51:14.055Z,96528.00
2019-05-22T01:53:44.412Z,96525.00
2019-05-22T01:56:16.723Z,96534.00
2019-05-22T01:58:48.489Z,96529.00
2019-05-22T02:01:20.172Z,96535.00
2019-05-22T02:03:51.615Z,96537.00
2019-05-22T02:06:25.333Z,96525.00
2019-05-22T02:09:21.857Z,96530.00
2019-05-22T02:12:03.260Z,96528.00
2019-05-22T02:14:34.461Z,96531.00
2019-05-22T02:17:05.780Z,96525.00
2019-05-22T02:19:37.102Z,96532.00
2019-05-22T02:22:06.985Z,96532.00
2019-05-22T02:24:37.462Z,96535.00
2019-05-22T02:27:07.955Z,96536.00
2019-05-22T02:29:37.942Z,96539.00
2019-05-22T02:32:08.330Z,96537.00
2019-05-22T02:34:39.506Z,96535.00
2019-05-22T02:37:12.031Z,96539.00
2019-05-22T02:39:43.111Z,96541.00
2019-05-22T02:42:19.251Z,96549.00
2019-05-22T02:44:49.355Z,96542.00
2019-05-22T02:47:30.276Z,96542.00
2019-05-22T02:50:00.430Z,96544.00
2019-05-22T02:52:30.154Z,96550.00
2019-05-22T02:55:00.277Z,96551.00
2019-05-22T02:57:32.072Z,96557.00
2019-05-22T03:00:03.635Z,96558.00
2019-05-22T03:02:33.998Z,96559.00
2019-05-22T03:05:09.995Z,96555.00
2019-05-22T03:07:41.434Z,96568.00
2019-05-22T03:10:13.597Z,96563.00
2019-05-22T03:12:45.759Z,96552.00
2019-05-22T03:15:20.080Z,96560.00
2019-05-22T03:17:52.477Z,96560.00
2019-05-22T03:20:23.449Z,96565.00
2019-05-22T03:23:19.122Z,96568.00
2019-05-22T03:25:49.137Z,96571.00
2019-05-22T03:28:19.845Z,96572.00
2019-05-22T03:30:51.041Z,96573.00
2019-05-22T03:33:21.292Z,96587.00
2019-05-22T03:35:54.523Z,96578.00
2019-05-22T03:38:24.992Z,96585.00
2019-05-22T03:40:54.986Z,96600.00
2019-05-22T03:43:28.371Z,96607.00
2019-05-22T03:46:03.054Z,96605.00
2019-05-22T03:48:38.331Z,96609.00
2019-05-22T03:51:13.127Z,96607.00
2019-05-22T03:53:44.068Z,96615.00
2019-05-22T03:56:15.652Z,96616.00
2019-05-22T03:58:47.934Z,96628.00
2019-05-22T04:01:18.772Z,96626.00
2019-05-22T04:03:48.899Z,96634.00
2019-05-22T04:06:20.115Z,96640.00
2019-05-22T04:08:51.057Z,96641.00
2019-05-22T04:11:21.653Z,96643.00
2019-05-22T04:13:52.020Z,96646.00
2019-05-22T04:16:25.018Z,96639.00
2019-05-22T04:18:56.114Z,96649.00
2019-05-22T04:21:26.467Z,96644.00
2019-05-22T04:23:57.063Z,96650.00
2019-05-22T04:26:28.629Z,96655.00
2019-05-22T04:28:59.943Z,96658.00
2019-05-22T04:31:34.633Z,96654.00
2019-05-22T04:34:05.118Z,96664.00
2019-05-22T04:36:35.953Z,96653.00
2019-05-22T04:39:11.831Z,96650.00
2019-05-22T04:41:43.270Z,96656.00
2019-05-22T04:44:13.391Z,96656.00
2019-05-22T04:46:43.869Z,96657.00
2019-05-22T04:49:14.952Z,96669.00
2019-05-22T04:51:45.673Z,96665.00
2019-05-22T04:54:15.790Z,96666.00
2019-05-22T04:56:45.795Z,96671.00
2019-05-22T04:59:15.552Z,96665.00
2019-05-22T05:01:45.797Z,96673.00
2019-05-22T05:04:16.152Z,96672.00
2019-05-22T05:06:46.154Z,96674.00
2019-05-22T05:09:16.396Z,96673.00
2019-05-22T05:11:46.512Z,96677.00
2019-05-22T05:14:16.165Z,96681.00
2019-05-22T05:16:47.358Z,96679.00
2019-05-22T05:19:17.360Z,96685.00
2019-05-22T05:21:47.363Z,96679.00
2019-05-22T05:24:17.369Z,96679.00
2019-05-22T05:26:48.087Z,96679.00
2019-05-22T05:29:29.987Z,96670.00
2019-05-22T05:32:00.800Z,96677.00
2019-05-22T05:34:45.270Z,96686.00
2019-05-22T05:37:13.524Z,96683.00
2019-05-22T05:39:51.204Z,96690.00
2019-05-22T05:42:21.444Z,96680.00
2019-05-22T05:44:51.686Z,96691.00
2019-05-22T05:47:21.930Z,96689.00
2019-05-22T05:49:52.529Z,96682.00
2019-05-22T05:52:24.570Z,96693.00
2019-05-22T05:54:54.567Z,96698.00
2019-05-22T05:57:41.610Z,96701.00
2019-05-22T06:00:24.814Z,96702.00
2019-05-22T06:02:58.894Z,96706.00
2019-05-22T06:05:29.133Z,96705.00
2019-05-22T06:07:59.493Z,96701.00
2019-05-22T06:13:15.828Z,96707.00
2019-05-22T06:15:52.897Z,96707.00
2019-05-22T06:18:35.780Z,96720.00
2019-05-22T06:21:07.180Z,96709.00
2019-05-22T06:23:45.102Z,96708.00
2019-05-22T06:26:23.266Z,96707.00
2019-05-22T06:28:55.060Z,96714.00
2019-05-22T06:31:55.545Z,96726.00
2019-05-22T06:34:25.663Z,96721.00
2019-05-22T06:36:59.023Z,96719.00
2019-05-22T06:39:29.631Z,96731.00
2019-05-22T06:42:00.944Z,96730.00
2019-05-22T06:44:34.184Z,96731.00
2019-05-22T06:47:04.900Z,96732.00
2019-05-22T06:49:38.308Z,96731.00
2019-05-22T06:52:09.111Z,96751.00
2019-05-22T06:54:39.590Z,96748.00
2019-05-22T06:57:13.441Z,96742.00
2019-05-22T06:59:43.790Z,96756.00
2019-05-22T07:02:15.477Z,96755.00
2019-05-22T07:04:46.818Z,96759.00
2019-05-22T07:07:17.994Z,96756.00
2019-05-22T07:09:48.595Z,96761.00
2019-05-22T07:12:20.763Z,96760.00
2019-05-22T07:15:11.535Z,96772.00
2019-05-22T07:17:42.719Z,96777.00
2019-05-22T07:20:13.354Z,96780.00
2019-05-22T07:22:44.283Z,96770.00
2019-05-22T07:25:15.124Z,96776.00
2019-05-22T07:27:45.121Z,96777.00
2019-05-22T07:30:15.601Z,96781.00
2019-05-22T07:32:45.601Z,96785.00
2019-05-22T07:35:16.216Z,96790.00
2019-05-22T07:37:48.606Z,96793.00
2019-05-22T07:40:20.305Z,96792.00
2019-05-22T07:42:52.573Z,96796.00
2019-05-22T07:45:26.531Z,96797.00
2019-05-22T07:47:57.970Z,96800.00
2019-05-22T07:50:29.290Z,96806.00
2019-05-22T07:52:59.526Z,96807.00
2019-05-22T07:55:32.775Z,96810.00
2019-05-22T07:58:10.337Z,96813.00
2019-05-22T08:00:43.937Z,96819.00
2019-05-22T08:03:13.695Z,96811.00
2019-05-22T08:05:51.011Z,96814.00
2019-05-22T08:08:22.093Z,96810.00
2019-05-22T08:10:53.771Z,96817.00
2019-05-22T08:13:24.022Z,96814.00
2019-05-22T08:15:54.136Z,96818.00
2019-05-22T08:18:24.255Z,96817.00
2019-05-22T08:20:54.378Z,96819.00
2019-05-22T08:23:26.896Z,96813.00
2019-05-22T08:25:59.605Z,96812.00
2019-05-22T08:28:32.302Z,96809.00
2019-05-22T08:31:03.403Z,96818.00
2019-05-22T08:33:36.379Z,96806.00
2019-05-22T08:36:07.945Z,96811.00
2019-05-22T08:38:38.544Z,96812.00
2019-05-22T08:41:11.069Z,96820.00
2019-05-22T08:44:11.393Z,96829.00
2019-05-22T08:46:14.424Z,96827.00
2019-05-22T08:48:48.029Z,96820.00
2019-05-22T08:51:16.346Z,96828.00
2019-05-22T08:53:48.625Z,96825.00
2019-05-22T08:56:18.951Z,96825.00
2019-05-22T08:58:49.350Z,96829.00
2019-05-22T09:01:19.228Z,96834.00
2019-05-22T09:03:50.080Z,96841.00
2019-05-22T09:06:19.832Z,96845.00
2019-05-22T09:08:50.315Z,96849.00
2019-05-22T09:11:20.436Z,96846.00
2019-05-22T09:13:50.677Z,96849.00
2019-05-22T09:16:21.756Z,96861.00
2019-05-22T09:18:52.615Z,96857.00
2019-05-22T09:21:22.989Z,96860.00
2019-05-22T09:23:53.201Z,96857.00
2019-05-22T09:26:23.559Z,96852.00
2019-05-22T09:28:53.443Z,96862.00
2019-05-22T09:31:23.319Z,96863.00
2019-05-22T09:33:53.806Z,96872.00
2019-05-22T09:36:23.808Z,96863.00
2019-05-22T09:38:54.044Z,96875.00
2019-05-22T09:41:24.170Z,96879.00
2019-05-22T09:43:54.166Z,96874.00
2019-05-22T09:46:24.291Z,96873.00
2019-05-22T09:48:54.408Z,96883.00
2019-05-22T09:51:24.769Z,96883.00
2019-05-22T09:53:56.568Z,96887.00
2019-05-22T09:56:27.167Z,96899.00
2019-05-22T09:58:57.410Z,96887.00
2019-05-22T10:01:27.527Z,96893.00
2019-05-22T10:03:57.909Z,96900.00
2019-05-22T10:06:28.008Z,96895.00
2019-05-22T10:08:58.368Z,96901.00
2019-05-22T10:11:28.730Z,96899.00
2019-05-22T10:13:58.852Z,96904.00
2019-05-22T10:16:28.611Z,96902.00
2019-05-22T10:18:58.974Z,96906.00
2019-05-22T10:21:29.339Z,96901.00
2019-05-22T10:24:01.255Z,96910.00
2019-05-22T10:26:31.980Z,96912.00
2019-05-22T10:29:02.345Z,96906.00
2019-05-22T10:31:32.468Z,96906.00
2019-05-22T10:34:02.102Z,96912.00
2019-05-22T10:36:32.579Z,96922.00
2019-05-22T10:39:02.462Z,96920.00
2019-05-22T10:41:32.588Z,96934.00
2019-05-22T10:44:02.461Z,96933.00
2019-05-22T10:46:32.514Z,96928.00
2019-05-22T10:49:03.061Z,96934.00
2019-05-22T10:51:33.422Z,96938.00
2019-05-22T10:54:05.366Z,96948.00
2019-05-22T10:56:35.469Z,96945.00
2019-05-22T10:59:06.187Z,96954.00
2019-05-22T11:01:37.735Z,96948.00
2019-05-22T11:04:07.998Z,96957.00
2019-05-22T11:06:38.586Z,96945.00
2019-05-22T11:09:10.389Z,96940.00
2019-05-22T11:11:41.714Z,96933.00
2019-05-22T11:14:11.603Z,96937.00
2019-05-22T11:16:41.953Z,96938.00
2019-05-22T11:19:12.551Z,96935.00
2019-05-22T11:21:43.031Z,96938.00
2019-05-22T11:24:13.033Z,96942.00
2019-05-22T11:26:43.035Z,96948.00
2019-05-22T11:29:13.647Z,96948.00
2019-05-22T11:31:44.976Z,96939.00
2019-05-22T11:34:14.846Z,96946.00
2019-05-22T11:36:44.723Z,96936.00
2019-05-22T11:39:16.160Z,96943.00
2019-05-22T11:41:46.641Z,96946.00
2019-05-22T11:44:17.001Z,96952.00
2019-05-22T11:46:47.121Z,96957.00
2019-05-22T11:49:17.146Z,96955.00
2019-05-22T11:51:47.755Z,96956.00
2019-05-22T11:54:17.856Z,96958.00
2019-05-22T11:56:48.093Z,96948.00
2019-05-22T11:59:18.565Z,96955.00
2019-05-22T12:01:48.216Z,96960.00
2019-05-22T12:04:18.688Z,96957.00
2019-05-22T12:06:53.266Z,96950.00
2019-05-22T12:09:21.588Z,96953.00
2019-05-22T12:11:51.944Z,96961.00
2019-05-22T12:14:22.650Z,96969.00
2019-05-22T12:16:53.488Z,96958.00
2019-05-22T12:19:24.702Z,96971.00
2019-05-22T12:21:55.056Z,96978.00
2019-05-22T12:24:29.341Z,96973.00
2019-05-22T12:26:56.380Z,96969.00
2019-05-22T12:29:27.582Z,96981.00
2019-05-22T12:31:58.179Z,96981.00
2019-05-22T12:34:28.421Z,96983.00
2019-05-22T12:36:59.267Z,96982.00
2019-05-22T12:39:30.913Z,96975.00
2019-05-22T12:42:02.034Z,96980.00
2019-05-22T12:44:32.501Z,96973.00
2019-05-22T12:47:03.824Z,96977.00
2019-05-22T12:49:34.546Z,96986.00
2019-05-22T12:52:04.810Z,96977.00
2019-05-22T12:54:46.092Z,96975.00
2019-05-22T12:57:06.950Z,96976.00
2019-05-22T12:59:37.789Z,96985.00
2019-05-22T13:02:10.427Z,96980.00
2019-05-22T13:04:40.786Z,96989.00
2019-05-22T13:07:11.398Z,96974.00
2019-05-22T13:09:41.509Z,96979.00
2019-05-22T13:12:13.912Z,96974.00
2019-05-22T13:14:44.513Z,96976.00
2019-05-22T13:17:15.838Z,96971.00
2019-05-22T13:19:47.516Z,96968.00
2019-05-22T13:22:19.442Z,96980.00
2019-05-22T13:24:51.475Z,96969.00
2019-05-22T13:27:22.738Z,96973.00
2019-05-22T13:29:54.490Z,96970.00
2019-05-22T13:32:25.799Z,96958.00
2019-05-22T13:34:56.042Z,96979.00
2019-05-22T13:37:26.166Z,96972.00
2019-05-22T13:39:56.770Z,96975.00
2019-05-22T13:42:27.366Z,96971.00
2019-05-22T13:44:57.842Z,96981.00
2019-05-22T13:47:28.321Z,96974.00
2019-05-22T13:49:59.409Z,96978.00
2019-05-22T13:52:29.645Z,96975.00
2019-05-22T13:54:59.885Z,96978.00
2019-05-22T13:57:30.364Z,96978.00
2019-05-22T14:00:00.124Z,96978.00
2019-05-22T14:02:30.612Z,96980.00
2019-05-22T14:05:00.858Z,96983.00
2019-05-22T14:07:30.971Z,96986.00
2019-05-22T14:10:01.983Z,96983.00
2019-05-22T14:12:31.809Z,96989.00
2019-05-22T14:15:02.309Z,96992.00
2019-05-22T14:17:32.168Z,96991.00
2019-05-22T14:20:02.344Z,96987.00
2019-05-22T14:22:32.291Z,96997.00
2019-05-22T14:25:02.412Z,96989.00
2019-05-22T14:27:32.413Z,96986.00
2019-05-22T14:30:02.549Z,96989.00
2019-05-22T14:32:32.784Z,96986.00
2019-05-22T14:35:02.436Z,96996.00
2019-05-22T14:37:33.139Z,96992.00
2019-05-22T14:40:05.059Z,96997.00
2019-05-22T14:42:35.567Z,97001.00
2019-05-22T14:45:07.709Z,97002.00
2019-05-22T14:47:37.706Z,96986.00
2019-05-22T14:50:09.621Z,97002.00
2019-05-22T14:52:40.359Z,97002.00
2019-05-22T14:55:10.702Z,97010.00
2019-05-22T14:57:41.315Z,97005.00
2019-05-22T15:00:15.746Z,97007.00
2019-05-22T15:02:52.753Z,97011.00
2019-05-22T15:05:19.107Z,97011.00
2019-05-22T15:07:49.586Z,97006.00
2019-05-22T15:10:21.387Z,97006.00
2019-05-22T15:12:54.170Z,97010.00
2019-05-22T15:15:25.834Z,97013.00
2019-05-22T15:17:55.833Z,97011.00
2019-05-22T15:20:29.675Z,97017.00
2019-05-22T15:22:59.671Z,97011.00
2019-05-22T15:25:29.914Z,97018.00
2019-05-22T15:28:00.896Z,97016.00
2019-05-22T15:30:31.476Z,97021.00
2019-05-22T15:33:01.240Z,97029.00
2019-05-22T15:35:31.721Z,97027.00
2019-05-22T15:38:01.483Z,97024.00
2019-05-22T15:40:32.582Z,97030.00
2019-05-22T15:43:03.737Z,97030.00
2019-05-22T15:45:35.100Z,97036.00
2019-05-22T15:48:09.778Z,97026.00
2019-05-22T15:50:41.341Z,97038.00
2019-05-22T15:53:15.134Z,97038.00
2019-05-22T15:55:44.629Z,97030.00
2019-05-22T15:58:17.360Z,97038.00
2019-05-22T16:00:48.043Z,97026.00
2019-05-22T16:03:22.973Z,97032.00
2019-05-22T16:06:09.269Z,97029.00
2019-05-22T16:08:39.664Z,97030.00
2019-05-22T16:11:12.409Z,97039.00
2019-05-22T16:13:42.744Z,97033.00
2019-05-22T16:16:15.422Z,97030.00
2019-05-22T16:19:05.703Z,97036.00
2019-05-22T16:21:55.991Z,97044.00
2019-05-22T16:24:26.476Z,97039.00
2019-05-22T16:26:57.516Z,97044.00
2019-05-22T16:29:28.395Z,97047.00
2019-05-22T16:32:03.312Z,97039.00
2019-05-22T16:34:33.306Z,97051.00
2019-05-22T16:37:04.054Z,97051.00
2019-05-22T16:39:34.377Z,97047.00
2019-05-22T16:42:05.468Z,97055.00
2019-05-22T16:44:36.170Z,97057.00
2019-05-22T16:47:07.048Z,97047.00
2019-05-22T16:49:38.367Z,97052.00
2019-05-22T16:52:11.393Z,97051.00
2019-05-22T16:54:42.080Z,97052.00
2019-05-22T16:57:12.920Z,97047.00
2019-05-22T16:59:44.000Z,97049.00
2019-05-22T17:02:15.673Z,97061.00
2019-05-22T17:04:45.788Z,97064.00
2019-05-22T17:07:16.764Z,97060.00
2019-05-22T17:09:49.410Z,97068.00
2019-05-22T17:12:20.954Z,97066.00
2019-05-22T17:14:51.926Z,97081.00
2019-05-22T17:17:22.767Z,97080.00
2019-05-22T17:19:54.200Z,97074.00
2019-05-22T17:22:25.154Z,97070.00
2019-05-22T17:24:55.532Z,97078.00
2019-05-22T17:27:25.999Z,97082.00
2019-05-22T17:29:56.726Z,97075.00
2019-05-22T17:32:28.998Z,97075.00
2019-05-22T17:34:59.250Z,97081.00
2019-05-22T17:37:32.620Z,97072.00
2019-05-22T17:40:07.043Z,97072.00
2019-05-22T17:42:41.885Z,97077.00
2019-05-22T17:45:13.016Z,97074.00
2019-05-22T17:47:43.999Z,97080.00
2019-05-22T17:50:26.497Z,97075.00
2019-05-22T17:52:55.163Z,97081.00
2019-05-22T17:55:26.733Z,97084.00
2019-05-22T17:57:56.841Z,97079.00
2019-05-22T18:00:46.883Z,97080.00
2019-05-22T18:03:18.451Z,97081.00
2019-05-22T18:05:49.046Z,97076.00
2019-05-22T18:08:19.768Z,97087.00
2019-05-22T18:10:51.448Z,97088.00
2019-05-22T18:13:21.692Z,97085.00
2019-05-22T18:15:51.811Z,97089.00
2019-05-22T18:18:22.178Z,97095.00
2019-05-22T18:20:51.932Z,97095.00
2019-05-22T18:23:22.050Z,97105.00
2019-05-22T18:25:52.175Z,97111.00
2019-05-22T18:28:22.649Z,97104.00
2019-05-22T18:30:52.895Z,97113.00
2019-05-22T18:33:22.780Z,97114.00
2019-05-22T18:35:52.898Z,97121.00
2019-05-22T18:38:22.786Z,97129.00
2019-05-22T18:40:52.417Z,97135.00
2019-05-22T18:43:23.214Z,97134.00
2019-05-22T18:45:53.978Z,97142.00
2019-05-22T18:48:23.855Z,97134.00
2019-05-22T18:50:54.219Z,97139.00
2019-05-22T18:53:24.576Z,97141.00
2019-05-22T18:55:54.583Z,97148.00
2019-05-22T18:58:25.193Z,97149.00
2019-05-22T19:00:55.302Z,97140.00
2019-05-22T19:03:25.592Z,97140.00
2019-05-22T19:05:55.185Z,97152.00
2019-05-22T19:08:25.305Z,97153.00
2019-05-22T19:10:55.429Z,97148.00
2019-05-22T19:13:25.664Z,97149.00
2019-05-22T19:15:55.668Z,97157.00
2019-05-22T19:18:25.429Z,97159.00
2019-05-22T19:20:55.314Z,97156.00
2019-05-22T19:23:25.436Z,97157.00
2019-05-22T19:25:55.561Z,97160.00
2019-05-22T19:28:42.217Z,97167.00
2019-05-22T19:30:58.472Z,97159.00
2019-05-22T19:33:28.677Z,97163.00
2019-05-22T19:35:59.037Z,97163.00
2019-05-22T19:38:29.174Z,97165.00
2019-05-22T19:40:59.637Z,97167.00
2019-05-22T19:43:29.876Z,97166.00
2019-05-22T19:45:59.760Z,97167.00
2019-05-22T19:48:29.519Z,97170.00
2019-05-22T19:51:01.958Z,97161.00
2019-05-22T19:53:31.930Z,97172.00
2019-05-22T19:56:01.801Z,97161.00
2019-05-22T19:58:32.043Z,97160.00
2019-05-22T20:01:02.536Z,97160.00
2019-05-22T20:03:33.494Z,97155.00
2019-05-22T20:06:03.606Z,97167.00
2019-05-22T20:08:36.651Z,97157.00
2019-05-22T20:11:06.871Z,97163.00
2019-05-22T20:13:37.934Z,97170.00
2019-05-22T20:16:08.895Z,97174.00
2019-05-22T20:18:39.028Z,97178.00
2019-05-22T20:21:09.613Z,97184.00
2019-05-22T20:23:44.420Z,97184.00
2019-05-22T20:26:14.287Z,97191.00
2019-05-22T20:28:44.649Z,97186.00
2019-05-22T20:31:14.915Z,97195.00
2019-05-22T20:33:44.895Z,97189.00
2019-05-22T20:36:15.495Z,97193.00
2019-05-22T20:38:45.978Z,97200.00
2019-05-22T20:41:16.937Z,97196.00
2019-05-22T20:43:47.413Z,97202.00
2019-05-22T20:46:21.743Z,97195.00
2019-05-22T20:48:52.832Z,97201.00
2019-05-22T20:51:24.860Z,97207.00
2019-05-22T20:53:56.535Z,97212.00
2019-05-22T20:56:30.753Z,97210.00
2019-05-22T20:59:22.220Z,97212.00
2019-05-22T21:01:52.841Z,97217.00
2019-05-22T21:04:24.994Z,97205.00
2019-05-22T21:07:00.299Z,97207.00
2019-05-22T21:09:32.672Z,97217.00
2019-05-22T21:12:05.365Z,97210.00
2019-05-22T21:14:35.309Z,97214.00
2019-05-22T21:17:06.527Z,97220.00
2019-05-22T21:19:37.708Z,97210.00
2019-05-22T21:22:09.783Z,97218.00
2019-05-22T21:24:39.990Z,97219.00
2019-05-22T21:27:12.634Z,97221.00
2019-05-22T21:29:43.115Z,97214.00
2019-05-22T21:32:14.564Z,97212.00
2019-05-22T21:34:45.412Z,97212.00
2019-05-22T21:37:16.591Z,97216.00
2019-05-22T21:39:48.033Z,97222.00
2019-05-22T21:42:18.396Z,97224.00
2019-05-22T21:44:48.394Z,97227.00
2019-05-22T21:47:20.800Z,97224.00
2019-05-22T21:49:50.921Z,97218.00
2019-05-22T21:52:21.279Z,97225.00
2019-05-22T21:54:52.115Z,97221.00
2019-05-22T21:57:22.602Z,97226.00
2019-05-22T21:59:52.964Z,97226.00
2019-05-22T22:02:29.080Z,97227.00
2019-05-22T22:04:59.083Z,97222.00
2019-05-22T22:07:30.159Z,97220.00
2019-05-22T22:10:00.643Z,97223.00
2019-05-22T22:12:31.511Z,97212.00
2019-05-22T22:15:01.858Z,97213.00
2019-05-22T22:17:32.682Z,97222.00
2019-05-22T22:20:03.762Z,97218.00
2019-05-22T22:22:33.647Z,97215.00
2019-05-22T22:25:04.606Z,97228.00
2019-05-22T22:27:35.206Z,97218.00
2019-05-22T22:30:27.890Z,97225.00
2019-05-22T22:33:00.741Z,97233.00
2019-05-22T22:35:30.409Z,97228.00
2019-05-22T22:38:00.532Z,97229.00
2019-05-22T22:40:30.297Z,97236.00
2019-05-22T22:43:01.984Z,97231.00
2019-05-22T22:45:39.291Z,97232.00
2019-05-22T22:48:10.976Z,97239.00
2019-05-22T22:50:41.587Z,97227.00
2019-05-22T22:53:12.657Z,97230.00
2019-05-22T22:55:44.599Z,97231.00
2019-05-22T22:58:17.494Z,97237.00
2019-05-22T23:00:48.779Z,97232.00
2019-05-22T23:03:24.783Z,97243.00
2019-05-22T23:05:54.795Z,97235.00
2019-05-22T23:08:31.144Z,97242.00
2019-05-22T23:11:01.503Z,97237.00
2019-05-22T23:13:33.423Z,97238.00
2019-05-22T23:16:04.984Z,97243.00
2019-05-22T23:18:47.225Z,97239.00
2019-05-22T23:21:17.104Z,97238.00
2019-05-22T23:23:46.169Z,97236.00
2019-05-22T23:26:16.390Z,97246.00
2019-05-22T23:28:47.709Z,97248.00
2019-05-22T23:31:18.666Z,97249.00
2019-05-22T23:33:48.546Z,97254.00
2019-05-22T23:36:18.434Z,97253.00
2019-05-22T23:38:50.237Z,97242.00
2019-05-22T23:41:21.677Z,97242.00
2019-05-22T23:43:52.767Z,97254.00
2019-05-22T23:46:25.992Z,97256.00
2019-05-22T23:48:56.225Z,97235.00
2019-05-22T23:51:27.192Z,97239.00
2019-05-22T23:53:58.635Z,97242.00
2019-05-22T23:56:29.721Z,97235.00
2019-05-22T23:58:59.837Z,97240.00
